Terminal Aerodrome Forecast
Issued by NWS

Home | Current Version | Previous Version | Text Only | Print | Product List | Glossary Off
Versions: 1 2 3 4 5 6 7 8 9 10 11 12 13 14 15 16 17 18 19 20 21 22 23 24 25 26 27 28 29 30 31

754
FTUS43 KABR 231618 AAE
TAFATY
TAF AMD
KATY 231618Z 2316/2412 11015G20KT 5SM -RA BR OVC008
     FM231900 10016KT 5SM BR OVC003
     FM232200 11017G24KT P6SM BKN008
     FM240000 11017G24KT P6SM BKN010
     FM240300 12016KT P6SM SCT010=

USA.gov is the U.S. government's official web portal to all federal, state and local government web resources and services.